sensor_id;sensor_type;location;lat;lon;timestamp;pressure;altitude;pressure_sealevel;temperature;humidity
46690;BME280;32423;45.398;10.874;2023-05-23T00:02:15;100490.88;;;21.30;56.04
46690;BME280;32423;45.398;10.874;2023-05-23T00:05:09;100484.97;;;21.67;56.82
46690;BME280;32423;45.398;10.874;2023-05-23T00:08:03;100481.00;;;21.37;56.07
46690;BME280;32423;45.398;10.874;2023-05-23T00:10:58;100482.59;;;21.38;56.43
46690;BME280;32423;45.398;10.874;2023-05-23T00:13:47;100489.69;;;21.17;56.67
46690;BME280;32423;45.398;10.874;2023-05-23T00:16:42;100488.13;;;21.27;56.20
46690;BME280;32423;45.398;10.874;2023-05-23T00:19:38;100495.63;;;21.23;55.98
46690;BME280;32423;45.398;10.874;2023-05-23T00:22:29;100492.19;;;20.46;58.71
46690;BME280;32423;45.398;10.874;2023-05-23T00:25:24;100484.00;;;20.78;57.85
46690;BME280;32423;45.398;10.874;2023-05-23T00:28:19;100483.25;;;20.88;57.74
46690;BME280;32423;45.398;10.874;2023-05-23T00:31:13;100476.50;;;20.79;57.85
46690;BME280;32423;45.398;10.874;2023-05-23T00:34:08;100486.34;;;20.69;58.32
46690;BME280;32423;45.398;10.874;2023-05-23T00:37:00;100482.41;;;20.67;59.02
46690;BME280;32423;45.398;10.874;2023-05-23T00:39:55;100483.44;;;20.37;59.52
46690;BME280;32423;45.398;10.874;2023-05-23T00:42:49;100478.41;;;20.61;58.84
46690;BME280;32423;45.398;10.874;2023-05-23T00:45:41;100486.31;;;20.62;58.81
46690;BME280;32423;45.398;10.874;2023-05-23T00:48:34;100484.00;;;20.75;58.32
46690;BME280;32423;45.398;10.874;2023-05-23T00:51:28;100491.44;;;20.57;58.63
46690;BME280;32423;45.398;10.874;2023-05-23T00:54:26;100486.66;;;20.46;58.70
46690;BME280;32423;45.398;10.874;2023-05-23T00:57:19;100492.63;;;20.59;58.62
46690;BME280;32423;45.398;10.874;2023-05-23T01:00:15;100483.94;;;20.64;58.32
46690;BME280;32423;45.398;10.874;2023-05-23T01:03:08;100471.63;;;20.40;59.24
46690;BME280;32423;45.398;10.874;2023-05-23T01:06:05;100488.31;;;20.62;58.55
46690;BME280;32423;45.398;10.874;2023-05-23T01:08:59;100481.13;;;20.46;59.19
46690;BME280;32423;45.398;10.874;2023-05-23T01:15:21;100478.84;;;20.70;58.27
46690;BME280;32423;45.398;10.874;2023-05-23T01:18:18;100480.63;;;20.30;59.33
46690;BME280;32423;45.398;10.874;2023-05-23T01:21:17;100479.25;;;20.72;58.31
46690;BME280;32423;45.398;10.874;2023-05-23T01:27:36;100479.22;;;20.61;58.41
46690;BME280;32423;45.398;10.874;2023-05-23T01:30:32;100484.94;;;19.70;61.41
46690;BME280;32423;45.398;10.874;2023-05-23T01:33:29;100479.31;;;18.78;65.64
46690;BME280;32423;45.398;10.874;2023-05-23T01:36:25;100475.72;;;19.11;64.57
46690;BME280;32423;45.398;10.874;2023-05-23T01:39:19;100479.84;;;19.31;63.63
46690;BME280;32423;45.398;10.874;2023-05-23T01:42:11;100476.97;;;19.61;62.50
46690;BME280;32423;45.398;10.874;2023-05-23T01:45:07;100485.06;;;19.40;63.68
46690;BME280;32423;45.398;10.874;2023-05-23T01:48:03;100479.84;;;19.31;64.48
46690;BME280;32423;45.398;10.874;2023-05-23T01:50:58;100477.84;;;19.72;62.74
46690;BME280;32423;45.398;10.874;2023-05-23T01:53:53;100474.06;;;19.91;62.11
46690;BME280;32423;45.398;10.874;2023-05-23T01:56:48;100472.50;;;19.97;61.92
46690;BME280;32423;45.398;10.874;2023-05-23T01:59:44;100471.34;;;19.98;61.69
46690;BME280;32423;45.398;10.874;2023-05-23T02:02:38;100474.09;;;19.94;61.81
46690;BME280;32423;45.398;10.874;2023-05-23T02:05:33;100476.13;;;20.01;61.30
46690;BME280;32423;45.398;10.874;2023-05-23T02:08:27;100473.19;;;19.80;61.63
46690;BME280;32423;45.398;10.874;2023-05-23T02:11:22;100477.22;;;19.89;61.61
46690;BME280;32423;45.398;10.874;2023-05-23T02:14:16;100478.91;;;20.12;61.01
46690;BME280;32423;45.398;10.874;2023-05-23T02:17:11;100473.72;;;19.96;61.03
46690;BME280;32423;45.398;10.874;2023-05-23T02:20:07;100472.94;;;19.48;61.81
46690;BME280;32423;45.398;10.874;2023-05-23T02:23:01;100471.09;;;19.22;63.19
46690;BME280;32423;45.398;10.874;2023-05-23T02:25:53;100470.63;;;19.53;62.87
46690;BME280;32423;45.398;10.874;2023-05-23T02:28:48;100463.53;;;19.56;62.31
46690;BME280;32423;45.398;10.874;2023-05-23T02:31:42;100462.78;;;19.55;62.36
46690;BME280;32423;45.398;10.874;2023-05-23T02:34:37;100472.72;;;19.30;62.83
46690;BME280;32423;45.398;10.874;2023-05-23T02:37:30;100475.00;;;19.61;61.89
46690;BME280;32423;45.398;10.874;2023-05-23T02:40:22;100464.88;;;19.32;62.53
46690;BME280;32423;45.398;10.874;2023-05-23T02:43:15;100463.69;;;19.30;62.90
46690;BME280;32423;45.398;10.874;2023-05-23T02:46:09;100466.63;;;19.10;63.16
46690;BME280;32423;45.398;10.874;2023-05-23T02:49:04;100468.19;;;19.04;63.15
46690;BME280;32423;45.398;10.874;2023-05-23T02:51:58;100470.19;;;19.11;63.92
46690;BME280;32423;45.398;10.874;2023-05-23T02:54:53;100473.25;;;19.02;64.29
46690;BME280;32423;45.398;10.874;2023-05-23T02:57:49;100472.56;;;19.09;63.71
46690;BME280;32423;45.398;10.874;2023-05-23T03:00:43;100468.53;;;19.03;63.71
46690;BME280;32423;45.398;10.874;2023-05-23T03:03:38;100470.50;;;19.02;64.07
46690;BME280;32423;45.398;10.874;2023-05-23T03:06:32;100468.34;;;19.22;64.33
46690;BME280;32423;45.398;10.874;2023-05-23T03:09:27;100461.19;;;19.14;64.09
46690;BME280;32423;45.398;10.874;2023-05-23T03:12:19;100459.63;;;19.57;63.43
46690;BME280;32423;45.398;10.874;2023-05-23T03:15:11;100457.84;;;19.38;62.38
46690;BME280;32423;45.398;10.874;2023-05-23T03:18:05;100459.41;;;19.36;62.91
46690;BME280;32423;45.398;10.874;2023-05-23T03:21:00;100455.88;;;19.86;63.42
46690;BME280;32423;45.398;10.874;2023-05-23T03:23:55;100458.94;;;19.71;61.25
46690;BME280;32423;45.398;10.874;2023-05-23T03:26:49;100459.66;;;19.60;61.65
46690;BME280;32423;45.398;10.874;2023-05-23T03:29:44;100455.88;;;19.83;61.25
46690;BME280;32423;45.398;10.874;2023-05-23T03:32:36;100462.41;;;20.22;61.30
46690;BME280;32423;45.398;10.874;2023-05-23T03:35:30;100464.84;;;19.69;59.75
46690;BME280;32423;45.398;10.874;2023-05-23T03:38:25;100471.53;;;19.24;62.19
46690;BME280;32423;45.398;10.874;2023-05-23T03:41:17;100476.72;;;19.33;62.34
46690;BME280;32423;45.398;10.874;2023-05-23T03:44:12;100482.44;;;19.50;63.38
46690;BME280;32423;45.398;10.874;2023-05-23T03:47:31;100479.59;;;19.94;62.65
46690;BME280;32423;45.398;10.874;2023-05-23T03:50:25;100483.38;;;20.30;61.31
46690;BME280;32423;45.398;10.874;2023-05-23T03:53:20;100476.03;;;20.63;60.07
46690;BME280;32423;45.398;10.874;2023-05-23T03:56:15;100484.03;;;20.82;59.21
46690;BME280;32423;45.398;10.874;2023-05-23T03:59:09;100486.81;;;20.89;58.81
46690;BME280;32423;45.398;10.874;2023-05-23T04:02:04;100486.44;;;21.05;58.44
46690;BME280;32423;45.398;10.874;2023-05-23T04:04:59;100482.91;;;21.11;58.13
46690;BME280;32423;45.398;10.874;2023-05-23T04:07:53;100484.94;;;21.18;57.36
46690;BME280;32423;45.398;10.874;2023-05-23T04:10:48;100481.00;;;21.26;57.71
46690;BME280;32423;45.398;10.874;2023-05-23T04:13:40;100485.72;;;21.25;57.00
46690;BME280;32423;45.398;10.874;2023-05-23T04:16:35;100478.22;;;21.29;57.04
46690;BME280;32423;45.398;10.874;2023-05-23T04:19:29;100483.00;;;21.32;56.50
46690;BME280;32423;45.398;10.874;2023-05-23T04:22:24;100481.41;;;21.31;56.57
46690;BME280;32423;45.398;10.874;2023-05-23T04:25:18;100485.56;;;20.72;54.49
46690;BME280;32423;45.398;10.874;2023-05-23T04:28:26;100482.41;;;20.67;57.29
46690;BME280;32423;45.398;10.874;2023-05-23T04:31:21;100472.00;;;20.42;57.87
46690;BME280;32423;45.398;10.874;2023-05-23T04:34:15;100484.63;;;20.36;57.81
46690;BME280;32423;45.398;10.874;2023-05-23T04:37:10;100480.78;;;20.59;56.28
46690;BME280;32423;45.398;10.874;2023-05-23T04:40:04;100481.13;;;20.54;56.30
46690;BME280;32423;45.398;10.874;2023-05-23T04:43:23;100481.28;;;19.55;58.73
46690;BME280;32423;45.398;10.874;2023-05-23T04:46:19;100489.81;;;19.06;60.15
46690;BME280;32423;45.398;10.874;2023-05-23T04:49:25;100493.81;;;18.75;63.65
46690;BME280;32423;45.398;10.874;2023-05-23T04:52:17;100487.25;;;18.23;66.08
46690;BME280;32423;45.398;10.874;2023-05-23T04:55:09;100481.66;;;17.93;68.31
46690;BME280;32423;45.398;10.874;2023-05-23T04:57:59;100492.34;;;17.99;69.54
46690;BME280;32423;45.398;10.874;2023-05-23T05:00:54;100492.84;;;18.04;68.76
46690;BME280;32423;45.398;10.874;2023-05-23T05:03:48;100486.31;;;18.16;68.98
46690;BME280;32423;45.398;10.874;2023-05-23T05:06:43;100483.75;;;18.56;67.10
46690;BME280;32423;45.398;10.874;2023-05-23T05:09:35;100487.47;;;18.41;67.18
46690;BME280;32423;45.398;10.874;2023-05-23T05:12:31;100484.94;;;18.89;66.09
46690;BME280;32423;45.398;10.874;2023-05-23T05:15:25;100487.81;;;19.40;64.61
46690;BME280;32423;45.398;10.874;2023-05-23T05:18:20;100488.50;;;19.70;63.60
46690;BME280;32423;45.398;10.874;2023-05-23T05:21:15;100477.09;;;19.31;64.15
46690;BME280;32423;45.398;10.874;2023-05-23T05:24:10;100483.72;;;19.67;64.51
46690;BME280;32423;45.398;10.874;2023-05-23T05:27:06;100486.94;;;19.73;62.84
46690;BME280;32423;45.398;10.874;2023-05-23T05:30:00;100484.69;;;19.85;63.13
46690;BME280;32423;45.398;10.874;2023-05-23T05:33:00;100485.22;;;20.12;61.39
46690;BME280;32423;45.398;10.874;2023-05-23T05:35:55;100488.59;;;20.42;60.38
46690;BME280;32423;45.398;10.874;2023-05-23T05:38:50;100482.78;;;20.65;59.69
46690;BME280;32423;45.398;10.874;2023-05-23T05:41:44;100485.94;;;20.67;58.67
46690;BME280;32423;45.398;10.874;2023-05-23T05:44:39;100478.88;;;20.77;58.43
46690;BME280;32423;45.398;10.874;2023-05-23T05:47:33;100482.31;;;20.53;58.94
46690;BME280;32423;45.398;10.874;2023-05-23T05:50:28;100470.09;;;20.54;59.75
46690;BME280;32423;45.398;10.874;2023-05-23T05:53:23;100477.66;;;20.71;62.55
46690;BME280;32423;45.398;10.874;2023-05-23T05:56:18;100479.28;;;20.82;61.27
46690;BME280;32423;45.398;10.874;2023-05-23T05:59:13;100476.25;;;21.16;60.46
46690;BME280;32423;45.398;10.874;2023-05-23T06:02:08;100481.00;;;21.29;59.83
46690;BME280;32423;45.398;10.874;2023-05-23T06:05:04;100473.09;;;21.24;60.59
46690;BME280;32423;45.398;10.874;2023-05-23T06:07:58;100476.63;;;21.14;62.70
46690;BME280;32423;45.398;10.874;2023-05-23T06:10:53;100484.94;;;21.18;62.38
46690;BME280;32423;45.398;10.874;2023-05-23T06:13:47;100486.53;;;21.29;61.78
46690;BME280;32423;45.398;10.874;2023-05-23T06:16:42;100492.06;;;21.44;61.86
46690;BME280;32423;45.398;10.874;2023-05-23T06:19:34;100481.00;;;21.72;61.00
46690;BME280;32423;45.398;10.874;2023-05-23T06:22:29;100495.25;;;21.88;60.01
46690;BME280;32423;45.398;10.874;2023-05-23T06:25:23;100493.66;;;22.01;59.84
46690;BME280;32423;45.398;10.874;2023-05-23T06:28:18;100486.53;;;21.86;59.90
46690;BME280;32423;45.398;10.874;2023-05-23T06:31:14;100491.66;;;21.91;60.61
46690;BME280;32423;45.398;10.874;2023-05-23T06:34:06;100489.72;;;21.95;59.83
46690;BME280;32423;45.398;10.874;2023-05-23T06:37:02;100502.34;;;22.25;59.22
46690;BME280;32423;45.398;10.874;2023-05-23T06:39:57;100492.81;;;22.40;58.76
46690;BME280;32423;45.398;10.874;2023-05-23T06:42:52;100503.13;;;22.29;58.73
46690;BME280;32423;45.398;10.874;2023-05-23T06:46:03;100502.28;;;22.42;58.52
46690;BME280;32423;45.398;10.874;2023-05-23T06:48:57;100501.13;;;22.33;58.74
46690;BME280;32423;45.398;10.874;2023-05-23T06:51:51;100491.28;;;22.07;57.58
46690;BME280;32423;45.398;10.874;2023-05-23T06:54:46;100495.25;;;22.13;56.11
46690;BME280;32423;45.398;10.874;2023-05-23T06:57:41;100492.06;;;22.07;55.48
46690;BME280;32423;45.398;10.874;2023-05-23T07:00:33;100497.63;;;22.04;55.57
46690;BME280;32423;45.398;10.874;2023-05-23T07:03:40;100494.44;;;22.12;57.11
46690;BME280;32423;45.398;10.874;2023-05-23T07:06:32;100492.78;;;22.36;56.13
46690;BME280;32423;45.398;10.874;2023-05-23T07:09:28;100485.16;;;22.79;54.58
46690;BME280;32423;45.398;10.874;2023-05-23T07:12:30;100487.03;;;22.96;54.13
46690;BME280;32423;45.398;10.874;2023-05-23T07:15:24;100488.34;;;22.64;52.89
46690;BME280;32423;45.398;10.874;2023-05-23T07:18:25;100484.00;;;22.63;54.41
46690;BME280;32423;45.398;10.874;2023-05-23T07:21:19;100487.53;;;22.70;56.21
46690;BME280;32423;45.398;10.874;2023-05-23T07:24:14;100486.63;;;22.98;55.10
46690;BME280;32423;45.398;10.874;2023-05-23T07:27:10;100483.97;;;23.39;54.64
46690;BME280;32423;45.398;10.874;2023-05-23T07:30:05;100485.88;;;23.56;54.44
46690;BME280;32423;45.398;10.874;2023-05-23T07:32:59;100473.91;;;23.63;53.97
46690;BME280;32423;45.398;10.874;2023-05-23T07:35:55;100476.28;;;23.64;53.51
46690;BME280;32423;45.398;10.874;2023-05-23T07:38:50;100473.91;;;23.63;53.61
46690;BME280;32423;45.398;10.874;2023-05-23T07:41:42;100478.66;;;23.66;53.10
46690;BME280;32423;45.398;10.874;2023-05-23T07:44:35;100478.22;;;23.67;51.54
46690;BME280;32423;45.398;10.874;2023-05-23T07:47:29;100474.59;;;23.74;52.03
46690;BME280;32423;45.398;10.874;2023-05-23T07:50:22;100481.91;;;23.54;52.42
46690;BME280;32423;45.398;10.874;2023-05-23T07:53:16;100475.34;;;23.26;53.38
46690;BME280;32423;45.398;10.874;2023-05-23T07:56:11;100466.28;;;23.19;51.71
46690;BME280;32423;45.398;10.874;2023-05-23T07:59:05;100462.22;;;23.34;50.63
46690;BME280;32423;45.398;10.874;2023-05-23T08:02:00;100470.94;;;23.36;51.00
46690;BME280;32423;45.398;10.874;2023-05-23T08:04:55;100468.63;;;23.24;50.79
46690;BME280;32423;45.398;10.874;2023-05-23T08:07:49;100464.97;;;23.34;51.78
46690;BME280;32423;45.398;10.874;2023-05-23T08:10:44;100469.03;;;23.22;51.74
46690;BME280;32423;45.398;10.874;2023-05-23T08:13:43;100469.38;;;23.28;52.79
46690;BME280;32423;45.398;10.874;2023-05-23T08:16:54;100471.66;;;23.43;52.57
46690;BME280;32423;45.398;10.874;2023-05-23T08:19:49;100472.13;;;23.83;51.59
46690;BME280;32423;45.398;10.874;2023-05-23T08:22:43;100470.63;;;23.75;52.03
46690;BME280;32423;45.398;10.874;2023-05-23T08:25:36;100472.06;;;23.90;51.18
46690;BME280;32423;45.398;10.874;2023-05-23T08:28:30;100477.22;;;24.33;49.66
46690;BME280;32423;45.398;10.874;2023-05-23T08:31:26;100475.31;;;24.26;50.92
46690;BME280;32423;45.398;10.874;2023-05-23T08:34:21;100471.44;;;24.13;51.34
46690;BME280;32423;45.398;10.874;2023-05-23T08:37:15;100468.25;;;23.77;51.60
46690;BME280;32423;45.398;10.874;2023-05-23T08:40:13;100478.66;;;24.44;50.80
46690;BME280;32423;45.398;10.874;2023-05-23T08:43:08;100479.16;;;23.95;51.17
46690;BME280;32423;45.398;10.874;2023-05-23T08:46:00;100464.09;;;23.96;52.64
46690;BME280;32423;45.398;10.874;2023-05-23T08:48:57;100470.66;;;24.12;50.47
46690;BME280;32423;45.398;10.874;2023-05-23T08:51:53;100467.19;;;24.01;52.01
46690;BME280;32423;45.398;10.874;2023-05-23T08:54:50;100472.34;;;24.40;50.55
46690;BME280;32423;45.398;10.874;2023-05-23T08:57:45;100468.63;;;24.20;50.70
46690;BME280;32423;45.398;10.874;2023-05-23T09:00:54;100464.00;;;24.03;51.81
46690;BME280;32423;45.398;10.874;2023-05-23T09:03:50;100469.44;;;24.13;50.88
46690;BME280;32423;45.398;10.874;2023-05-23T09:06:39;100471.06;;;24.48;49.69
46690;BME280;32423;45.398;10.874;2023-05-23T09:09:29;100462.28;;;23.75;51.84
46690;BME280;32423;45.398;10.874;2023-05-23T09:12:24;100449.81;;;23.94;51.88
46690;BME280;32423;45.398;10.874;2023-05-23T09:15:16;100469.56;;;24.03;52.11
46690;BME280;32423;45.398;10.874;2023-05-23T09:18:10;100465.78;;;23.82;52.42
46690;BME280;32423;45.398;10.874;2023-05-23T09:21:05;100461.28;;;24.37;51.16
46690;BME280;32423;45.398;10.874;2023-05-23T09:24:03;100469.84;;;23.74;52.22
46690;BME280;32423;45.398;10.874;2023-05-23T09:26:56;100468.69;;;23.68;52.01
46690;BME280;32423;45.398;10.874;2023-05-23T09:29:51;100461.66;;;23.98;52.36
46690;BME280;32423;45.398;10.874;2023-05-23T09:32:59;100459.25;;;24.71;50.10
46690;BME280;32423;45.398;10.874;2023-05-23T09:35:49;100464.94;;;25.21;49.44
46690;BME280;32423;45.398;10.874;2023-05-23T09:38:44;100462.66;;;24.21;50.65
46690;BME280;32423;45.398;10.874;2023-05-23T09:41:40;100455.53;;;24.51;50.48
46690;BME280;32423;45.398;10.874;2023-05-23T09:44:32;100455.22;;;24.76;49.89
46690;BME280;32423;45.398;10.874;2023-05-23T09:47:31;100454.22;;;24.28;50.88
46690;BME280;32423;45.398;10.874;2023-05-23T09:50:24;100452.03;;;24.47;49.67
46690;BME280;32423;45.398;10.874;2023-05-23T09:53:18;100450.97;;;24.34;49.94
46690;BME280;32423;45.398;10.874;2023-05-23T09:56:13;100451.97;;;24.16;50.58
46690;BME280;32423;45.398;10.874;2023-05-23T09:59:09;100453.97;;;24.50;49.60
46690;BME280;32423;45.398;10.874;2023-05-23T10:02:08;100450.06;;;24.74;48.92
46690;BME280;32423;45.398;10.874;2023-05-23T10:05:05;100447.13;;;24.85;48.00
46690;BME280;32423;45.398;10.874;2023-05-23T10:08:02;100446.22;;;24.34;50.56
46690;BME280;32423;45.398;10.874;2023-05-23T10:14:12;100445.84;;;25.46;43.64
46690;BME280;32423;45.398;10.874;2023-05-23T10:17:20;100441.78;;;25.28;44.94
46690;BME280;32423;45.398;10.874;2023-05-23T10:20:17;100442.97;;;25.96;40.13
46690;BME280;32423;45.398;10.874;2023-05-23T10:23:14;100442.94;;;25.77;43.01
46690;BME280;32423;45.398;10.874;2023-05-23T10:26:06;100448.50;;;25.03;44.88
46690;BME280;32423;45.398;10.874;2023-05-23T10:29:01;100445.59;;;24.84;44.96
46690;BME280;32423;45.398;10.874;2023-05-23T10:31:53;100447.28;;;24.74;46.60
46690;BME280;32423;45.398;10.874;2023-05-23T10:34:53;100443.78;;;25.00;44.19
46690;BME280;32423;45.398;10.874;2023-05-23T10:38:02;100440.41;;;25.12;44.67
46690;BME280;32423;45.398;10.874;2023-05-23T10:41:09;100442.00;;;25.13;45.53
46690;BME280;32423;45.398;10.874;2023-05-23T10:44:26;100435.75;;;25.56;43.83
46690;BME280;32423;45.398;10.874;2023-05-23T10:47:31;100431.50;;;24.67;46.88
46690;BME280;32423;45.398;10.874;2023-05-23T10:50:37;100428.94;;;24.50;47.74
46690;BME280;32423;45.398;10.874;2023-05-23T10:53:33;100426.22;;;24.46;46.57
46690;BME280;32423;45.398;10.874;2023-05-23T10:56:33;100432.97;;;25.79;43.14
46690;BME280;32423;45.398;10.874;2023-05-23T10:59:28;100424.72;;;25.49;42.58
46690;BME280;32423;45.398;10.874;2023-05-23T11:02:25;100415.38;;;25.36;44.91
46690;BME280;32423;45.398;10.874;2023-05-23T11:05:27;100419.66;;;25.67;42.38
46690;BME280;32423;45.398;10.874;2023-05-23T11:08:26;100414.00;;;26.14;40.91
46690;BME280;32423;45.398;10.874;2023-05-23T11:11:22;100407.56;;;25.27;44.12
46690;BME280;32423;45.398;10.874;2023-05-23T11:14:17;100416.16;;;25.36;44.70
46690;BME280;32423;45.398;10.874;2023-05-23T11:17:22;100416.38;;;24.99;45.42
46690;BME280;32423;45.398;10.874;2023-05-23T11:20:20;100408.84;;;25.92;41.33
46690;BME280;32423;45.398;10.874;2023-05-23T11:23:17;100404.31;;;25.55;43.00
46690;BME280;32423;45.398;10.874;2023-05-23T11:26:32;100405.66;;;25.47;40.79
46690;BME280;32423;45.398;10.874;2023-05-23T11:29:24;100409.16;;;26.37;39.47
46690;BME280;32423;45.398;10.874;2023-05-23T11:32:20;100402.47;;;26.71;39.27
46690;BME280;32423;45.398;10.874;2023-05-23T11:35:17;100404.19;;;26.65;38.13
46690;BME280;32423;45.398;10.874;2023-05-23T11:38:07;100400.09;;;26.69;40.45
46690;BME280;32423;45.398;10.874;2023-05-23T11:41:03;100405.81;;;25.83;42.14
46690;BME280;32423;45.398;10.874;2023-05-23T11:43:57;100392.81;;;25.30;42.84
46690;BME280;32423;45.398;10.874;2023-05-23T11:47:04;100399.72;;;25.22;43.44
46690;BME280;32423;45.398;10.874;2023-05-23T11:49:53;100396.88;;;25.49;41.24
46690;BME280;32423;45.398;10.874;2023-05-23T11:52:45;100403.53;;;25.32;43.99
46690;BME280;32423;45.398;10.874;2023-05-23T11:55:49;100398.63;;;25.39;43.58
46690;BME280;32423;45.398;10.874;2023-05-23T11:58:38;100394.91;;;25.46;41.33
46690;BME280;32423;45.398;10.874;2023-05-23T12:01:30;100399.81;;;25.15;44.13
46690;BME280;32423;45.398;10.874;2023-05-23T12:04:26;100399.72;;;25.22;43.06
46690;BME280;32423;45.398;10.874;2023-05-23T12:07:23;100392.97;;;25.20;42.49
46690;BME280;32423;45.398;10.874;2023-05-23T12:10:18;100396.59;;;26.06;36.75
46690;BME280;32423;45.398;10.874;2023-05-23T12:13:12;100396.06;;;26.34;37.63
46690;BME280;32423;45.398;10.874;2023-05-23T12:16:07;100388.75;;;26.01;40.58
46690;BME280;32423;45.398;10.874;2023-05-23T12:19:02;100392.69;;;25.37;42.67
46690;BME280;32423;45.398;10.874;2023-05-23T12:21:57;100397.06;;;24.85;44.62
46690;BME280;32423;45.398;10.874;2023-05-23T12:24:58;100391.22;;;25.76;40.91
46690;BME280;32423;45.398;10.874;2023-05-23T12:27:55;100386.03;;;25.78;41.38
46690;BME280;32423;45.398;10.874;2023-05-23T12:30:50;100385.66;;;25.76;40.33
46690;BME280;32423;45.398;10.874;2023-05-23T12:33:43;100380.19;;;26.31;39.64
46690;BME280;32423;45.398;10.874;2023-05-23T12:36:38;100370.31;;;25.68;42.35
46690;BME280;32423;45.398;10.874;2023-05-23T12:39:29;100368.66;;;25.47;42.03
46690;BME280;32423;45.398;10.874;2023-05-23T12:42:24;100363.47;;;25.02;44.05
46690;BME280;32423;45.398;10.874;2023-05-23T12:45:18;100363.47;;;25.02;43.99
46690;BME280;32423;45.398;10.874;2023-05-23T12:48:13;100363.09;;;25.47;43.25
46690;BME280;32423;45.398;10.874;2023-05-23T12:51:07;100362.06;;;25.37;43.17
46690;BME280;32423;45.398;10.874;2023-05-23T12:54:02;100353.00;;;25.33;43.57
46690;BME280;32423;45.398;10.874;2023-05-23T12:56:56;100359.31;;;25.14;44.16
46690;BME280;32423;45.398;10.874;2023-05-23T12:59:51;100353.53;;;25.01;44.06
46690;BME280;32423;45.398;10.874;2023-05-23T13:02:46;100362.09;;;25.14;44.25
46690;BME280;32423;45.398;10.874;2023-05-23T13:05:41;100354.69;;;24.77;45.41
46690;BME280;32423;45.398;10.874;2023-05-23T13:08:33;100355.81;;;24.80;45.54
46690;BME280;32423;45.398;10.874;2023-05-23T13:11:27;100352.84;;;24.67;46.07
46690;BME280;32423;45.398;10.874;2023-05-23T13:14:22;100354.75;;;24.43;46.58
46690;BME280;32423;45.398;10.874;2023-05-23T13:17:14;100354.31;;;24.75;44.96
46690;BME280;32423;45.398;10.874;2023-05-23T13:20:11;100353.31;;;24.62;46.17
46690;BME280;32423;45.398;10.874;2023-05-23T13:23:05;100350.03;;;24.97;41.86
46690;BME280;32423;45.398;10.874;2023-05-23T13:26:00;100345.59;;;25.46;41.57
46690;BME280;32423;45.398;10.874;2023-05-23T13:28:54;100351.38;;;25.12;43.06
46690;BME280;32423;45.398;10.874;2023-05-23T13:31:49;100343.19;;;25.02;42.91
46690;BME280;32423;45.398;10.874;2023-05-23T13:34:43;100341.19;;;25.02;43.89
46690;BME280;32423;45.398;10.874;2023-05-23T13:37:38;100346.19;;;24.61;45.17
46690;BME280;32423;45.398;10.874;2023-05-23T13:40:30;100352.13;;;24.63;44.22
46690;BME280;32423;45.398;10.874;2023-05-23T13:43:25;100339.13;;;24.80;42.95
46690;BME280;32423;45.398;10.874;2023-05-23T13:46:19;100346.16;;;25.38;41.33
46690;BME280;32423;45.398;10.874;2023-05-23T13:49:14;100338.25;;;24.86;43.64
46690;BME280;32423;45.398;10.874;2023-05-23T13:52:07;100338.31;;;24.83;43.39
46690;BME280;32423;45.398;10.874;2023-05-23T13:55:01;100330.78;;;24.80;44.31
46690;BME280;32423;45.398;10.874;2023-05-23T13:57:56;100333.63;;;24.76;44.38
46690;BME280;32423;45.398;10.874;2023-05-23T14:00:51;100331.38;;;24.67;44.88
46690;BME280;32423;45.398;10.874;2023-05-23T14:03:40;100331.88;;;24.86;42.30
46690;BME280;32423;45.398;10.874;2023-05-23T14:06:35;100330.16;;;24.95;42.50
46690;BME280;32423;45.398;10.874;2023-05-23T14:09:30;100324.34;;;24.59;43.65
46690;BME280;32423;45.398;10.874;2023-05-23T14:12:24;100325.84;;;24.64;43.83
46690;BME280;32423;45.398;10.874;2023-05-23T14:15:18;100326.56;;;24.98;42.26
46690;BME280;32423;45.398;10.874;2023-05-23T14:18:13;100329.28;;;25.02;42.91
46690;BME280;32423;45.398;10.874;2023-05-23T14:21:08;100332.50;;;24.74;44.40
46690;BME280;32423;45.398;10.874;2023-05-23T14:24:03;100329.53;;;24.84;43.83
46690;BME280;32423;45.398;10.874;2023-05-23T14:26:57;100316.88;;;25.06;43.24
46690;BME280;32423;45.398;10.874;2023-05-23T14:29:49;100326.06;;;24.50;43.70
46690;BME280;32423;45.398;10.874;2023-05-23T14:32:41;100314.97;;;24.50;42.39
46690;BME280;32423;45.398;10.874;2023-05-23T14:35:36;100314.31;;;24.65;43.44
46690;BME280;32423;45.398;10.874;2023-05-23T14:38:30;100314.69;;;24.67;43.95
46690;BME280;32423;45.398;10.874;2023-05-23T14:41:25;100305.25;;;24.61;43.87
46690;BME280;32423;45.398;10.874;2023-05-23T14:44:19;100303.91;;;24.46;44.22
46690;BME280;32423;45.398;10.874;2023-05-23T14:47:14;100299.06;;;24.50;43.86
46690;BME280;32423;45.398;10.874;2023-05-23T14:50:09;100294.13;;;24.61;42.76
46690;BME280;32423;45.398;10.874;2023-05-23T14:53:04;100288.81;;;24.70;43.79
46690;BME280;32423;45.398;10.874;2023-05-23T14:55:58;100286.81;;;24.98;42.56
46690;BME280;32423;45.398;10.874;2023-05-23T14:58:53;100290.16;;;24.62;43.28
46690;BME280;32423;45.398;10.874;2023-05-23T15:01:48;100289.69;;;24.67;43.30
46690;BME280;32423;45.398;10.874;2023-05-23T15:04:42;100287.56;;;24.48;42.83
46690;BME280;32423;45.398;10.874;2023-05-23T15:07:34;100282.38;;;24.77;43.17
46690;BME280;32423;45.398;10.874;2023-05-23T15:10:29;100281.25;;;24.71;43.24
46690;BME280;32423;45.398;10.874;2023-05-23T15:13:23;100281.19;;;24.51;43.91
46690;BME280;32423;45.398;10.874;2023-05-23T15:16:18;100274.72;;;24.58;43.23